createdAt,value
2019-01-27T00:00:36.286Z,10.67
2019-01-27T00:03:38.650Z,11.03
2019-01-27T00:06:40.816Z,11.13
2019-01-27T00:09:45.333Z,11.07
2019-01-27T00:12:47.511Z,9.10
2019-01-27T00:15:51.003Z,11.67
2019-01-27T00:18:53.181Z,12.30
2019-01-27T00:21:55.275Z,13.13
2019-01-27T00:24:59.357Z,9.70
2019-01-27T00:28:02.758Z,10.63
2019-01-27T00:31:17.522Z,11.23
2019-01-27T00:34:19.578Z,9.80
2019-01-27T00:37:22.016Z,10.47
2019-01-27T00:40:24.622Z,10.83
2019-01-27T00:43:26.655Z,12.80
2019-01-27T00:46:31.361Z,14.80
2019-01-27T00:49:33.425Z,11.87
2019-01-27T00:52:35.432Z,14.40
2019-01-27T00:55:37.959Z,14.77
2019-01-27T00:58:40.273Z,12.23
2019-01-27T01:01:43.971Z,11.40
2019-01-27T01:04:46.015Z,12.43
2019-01-27T01:07:48.010Z,12.60
2019-01-27T01:10:50.111Z,16.53
2019-01-27T01:13:52.264Z,15.07
2019-01-27T01:16:54.414Z,20.00
2019-01-27T01:19:59.000Z,14.97
2019-01-27T01:23:01.168Z,14.50
2019-01-27T01:26:05.602Z,18.27
2019-01-27T01:29:07.720Z,19.77
2019-01-27T01:32:09.749Z,19.63
2019-01-27T01:35:20.760Z,16.43
2019-01-27T01:38:22.823Z,19.20
2019-01-27T01:41:25.198Z,16.30
2019-01-27T01:44:27.502Z,17.00
2019-01-27T01:47:32.654Z,16.07
2019-01-27T01:50:37.014Z,21.90
2019-01-27T01:53:39.573Z,20.87
2019-01-27T01:56:41.604Z,14.50
2019-01-27T01:59:43.935Z,15.00
2019-01-27T02:02:45.941Z,15.03
2019-01-27T02:05:48.090Z,15.10
2019-01-27T02:08:50.155Z,15.93
2019-01-27T02:11:54.816Z,14.23
2019-01-27T02:15:04.308Z,17.40
2019-01-27T02:18:06.327Z,15.30
2019-01-27T02:21:11.220Z,15.00
2019-01-27T02:24:13.492Z,13.87
2019-01-27T02:27:17.395Z,13.37
2019-01-27T02:30:19.748Z,12.97
2019-01-27T02:33:21.773Z,17.77
2019-01-27T02:36:23.809Z,16.20
2019-01-27T02:39:28.568Z,17.70
2019-01-27T02:42:30.611Z,15.23
2019-01-27T02:45:32.667Z,17.57
2019-01-27T02:48:37.223Z,16.57
2019-01-27T02:51:39.215Z,14.87
2019-01-27T02:54:41.410Z,15.20
2019-01-27T02:57:45.170Z,15.23
2019-01-27T03:00:48.464Z,15.70
2019-01-27T03:03:50.872Z,17.10
2019-01-27T03:07:17.858Z,16.40
2019-01-27T03:10:20.032Z,16.13
2019-01-27T03:13:22.061Z,16.80
2019-01-27T03:16:24.094Z,17.20
2019-01-27T03:19:27.348Z,17.90
2019-01-27T03:22:29.401Z,14.77
2019-01-27T03:25:31.731Z,12.33
2019-01-27T03:28:39.987Z,19.93
2019-01-27T03:31:41.997Z,14.27
2019-01-27T03:34:46.715Z,11.40
2019-01-27T03:37:51.570Z,11.90
2019-01-27T03:40:54.871Z,13.27
2019-01-27T03:44:02.240Z,12.63
2019-01-27T03:47:04.474Z,15.87
2019-01-27T03:50:09.415Z,14.73
2019-01-27T03:53:11.736Z,12.13
2019-01-27T03:56:13.906Z,16.40
2019-01-27T03:59:15.946Z,11.77
2019-01-27T04:02:17.970Z,13.47
2019-01-27T04:05:20.344Z,12.37
2019-01-27T04:08:22.375Z,14.67
2019-01-27T04:11:24.410Z,16.00
2019-01-27T04:14:26.779Z,12.47
2019-01-27T04:17:28.783Z,13.00
2019-01-27T04:20:33.590Z,11.27
2019-01-27T04:23:35.674Z,14.93
2019-01-27T04:26:37.737Z,12.37
2019-01-27T04:29:39.767Z,11.57
2019-01-27T04:32:41.777Z,14.43
2019-01-27T04:35:45.673Z,11.07
2019-01-27T04:38:47.701Z,13.30
2019-01-27T04:41:49.719Z,14.83
2019-01-27T04:44:53.350Z,8.43
2019-01-27T04:47:55.388Z,9.40
2019-01-27T04:50:57.399Z,9.73
2019-01-27T04:53:59.706Z,11.47
2019-01-27T04:57:02.802Z,12.70
2019-01-27T05:00:07.752Z,10.03
2019-01-27T05:03:26.958Z,13.23
2019-01-27T05:06:28.953Z,10.37
2019-01-27T05:09:30.979Z,10.40
2019-01-27T05:12:38.124Z,12.27
2019-01-27T05:15:40.236Z,17.07
2019-01-27T05:18:42.243Z,14.87
2019-01-27T05:21:44.262Z,14.87
2019-01-27T05:24:46.579Z,12.83
2019-01-27T05:27:48.650Z,9.10
2019-01-27T05:30:53.428Z,9.37
2019-01-27T05:33:55.678Z,13.37
2019-01-27T05:36:57.703Z,8.97
2019-01-27T05:39:59.720Z,12.63
2019-01-27T05:43:01.749Z,13.70
2019-01-27T05:46:03.979Z,13.73
2019-01-27T05:49:05.999Z,13.33
2019-01-27T05:52:08.078Z,11.50
2019-01-27T05:55:11.996Z,12.57
2019-01-27T05:58:14.074Z,13.67
2019-01-27T06:01:16.107Z,11.37
2019-01-27T06:04:18.319Z,12.87
2019-01-27T06:07:20.303Z,10.00
2019-01-27T06:10:22.324Z,10.37
2019-01-27T06:13:27.290Z,14.40
2019-01-27T06:16:29.313Z,12.63
2019-01-27T06:19:33.610Z,10.53
2019-01-27T06:22:35.619Z,13.63
2019-01-27T06:25:37.923Z,11.53
2019-01-27T06:28:39.933Z,12.27
2019-01-27T06:31:44.442Z,12.47
2019-01-27T06:34:46.857Z,12.80
2019-01-27T06:37:50.070Z,14.33
2019-01-27T06:40:52.130Z,13.20
2019-01-27T06:43:54.352Z,14.43
2019-01-27T06:46:56.417Z,11.73
2019-01-27T06:49:58.436Z,10.63
2019-01-27T06:53:00.467Z,10.57
2019-01-27T06:56:04.680Z,10.13
2019-01-27T06:59:29.560Z,10.00
2019-01-27T07:02:36.235Z,12.90
2019-01-27T07:05:49.494Z,11.47
2019-01-27T07:09:09.279Z,12.10
2019-01-27T07:12:45.727Z,9.60
2019-01-27T07:16:01.475Z,9.47
2019-01-27T07:19:24.000Z,11.60
2019-01-27T07:22:31.572Z,12.13
2019-01-27T07:25:52.343Z,9.30
2019-01-27T07:29:12.804Z,9.43
2019-01-27T07:32:34.755Z,9.43
2019-01-27T07:36:02.660Z,11.23
2019-01-27T07:39:24.825Z,10.73
2019-01-27T07:42:55.324Z,8.83
2019-01-27T07:46:03.155Z,7.70
2019-01-27T07:49:15.665Z,12.87
2019-01-27T07:52:35.730Z,10.07
2019-01-27T07:55:56.097Z,12.73
2019-01-27T07:59:06.001Z,12.97
2019-01-27T08:02:32.631Z,12.70
2019-01-27T08:05:43.330Z,8.30
2019-01-27T08:08:53.789Z,8.93
2019-01-27T08:12:21.948Z,13.57
2019-01-27T08:15:45.075Z,13.73
2019-01-27T08:18:59.539Z,10.23
2019-01-27T08:22:23.913Z,15.73
2019-01-27T08:25:34.169Z,15.87
2019-01-27T08:29:03.973Z,17.43
2019-01-27T08:32:31.174Z,14.23
2019-01-27T08:35:59.921Z,16.83
2019-01-27T08:39:20.459Z,12.77
2019-01-27T08:42:57.456Z,13.73
2019-01-27T08:46:17.724Z,13.17
2019-01-27T08:49:19.813Z,10.93
2019-01-27T08:52:25.043Z,11.40
2019-01-27T08:55:27.122Z,10.93
2019-01-27T08:58:32.296Z,13.47
2019-01-27T09:01:43.361Z,12.23
2019-01-27T09:04:59.392Z,11.27
2019-01-27T09:08:24.389Z,7.90
2019-01-27T09:11:38.604Z,8.53
2019-01-27T09:15:03.583Z,12.17
2019-01-27T09:18:23.820Z,15.70
2019-01-27T09:21:54.598Z,8.57
2019-01-27T09:25:34.643Z,12.97
2019-01-27T09:28:45.419Z,12.43
2019-01-27T09:32:15.041Z,12.13
2019-01-27T09:35:35.293Z,10.50
2019-01-27T09:38:55.786Z,21.17
2019-01-27T09:42:13.607Z,14.37
2019-01-27T09:45:27.730Z,9.17
2019-01-27T09:48:55.910Z,10.90
2019-01-27T09:52:14.893Z,9.67
2019-01-27T09:55:26.042Z,13.73
2019-01-27T09:58:56.725Z,11.83
2019-01-27T10:02:06.167Z,11.17
2019-01-27T10:05:24.067Z,13.30
2019-01-27T10:08:42.240Z,9.30
2019-01-27T10:12:01.888Z,14.37
2019-01-27T10:15:30.172Z,12.10
2019-01-27T10:18:54.699Z,13.33
2019-01-27T10:22:04.381Z,10.23
2019-01-27T10:25:43.435Z,11.93
2019-01-27T10:28:54.703Z,15.83
2019-01-27T10:32:08.877Z,13.63
2019-01-27T10:35:23.897Z,15.83
2019-01-27T10:38:44.519Z,12.77
2019-01-27T10:42:08.980Z,14.30
2019-01-27T10:45:33.366Z,16.43
2019-01-27T10:48:45.483Z,16.37
2019-01-27T10:52:01.300Z,16.87
2019-01-27T10:55:21.052Z,11.93
2019-01-27T10:58:38.858Z,14.13
2019-01-27T11:02:03.228Z,15.30
2019-01-27T11:05:25.956Z,17.53
2019-01-27T11:08:38.148Z,18.37
2019-01-27T11:12:05.520Z,12.73
2019-01-27T11:15:46.647Z,16.03
2019-01-27T11:19:06.839Z,16.53
2019-01-27T11:22:36.127Z,18.17
2019-01-27T11:26:00.744Z,19.83
2019-01-27T11:29:23.119Z,18.10
2019-01-27T11:32:44.204Z,18.30
2019-01-27T11:36:08.672Z,18.70
2019-01-27T11:39:37.451Z,13.90
2019-01-27T11:43:00.188Z,11.63
2019-01-27T11:46:21.962Z,11.07
2019-01-27T11:49:49.283Z,7.40
2019-01-27T11:53:03.047Z,6.80
2019-01-27T11:56:05.638Z,10.47
2019-01-27T11:59:08.903Z,16.30
2019-01-27T12:02:10.936Z,13.23
2019-01-27T12:05:13.491Z,13.63
2019-01-27T12:08:15.529Z,11.90
2019-01-27T12:11:20.401Z,14.73
2019-01-27T12:14:22.655Z,11.10
2019-01-27T12:17:24.783Z,22.87
2019-01-27T12:20:32.034Z,21.03
2019-01-27T12:23:36.878Z,18.63
2019-01-27T12:26:44.632Z,25.80
2019-01-27T12:29:46.661Z,18.27
2019-01-27T12:32:48.964Z,25.87
2019-01-27T12:35:52.467Z,20.90
2019-01-27T12:38:57.672Z,26.90
2019-01-27T12:41:59.674Z,22.50
2019-01-27T12:45:03.926Z,22.77
2019-01-27T12:48:07.043Z,21.47
2019-01-27T12:51:09.104Z,18.87
2019-01-27T12:54:11.359Z,18.27
2019-01-27T12:57:16.433Z,13.77
2019-01-27T13:00:26.390Z,23.27
2019-01-27T13:03:28.710Z,20.47
2019-01-27T13:06:30.703Z,16.77
2019-01-27T13:09:32.797Z,18.77
2019-01-27T13:12:35.005Z,20.03
2019-01-27T13:15:37.202Z,17.23
2019-01-27T13:18:39.273Z,21.90
2019-01-27T13:24:56.814Z,17.43
2019-01-27T13:27:58.816Z,23.10
2019-01-27T13:31:01.467Z,23.63
2019-01-27T13:34:03.879Z,30.20
2019-01-27T13:37:05.902Z,23.13
2019-01-27T13:40:15.177Z,30.97
2019-01-27T13:43:17.194Z,27.30
2019-01-27T13:46:19.420Z,27.20
2019-01-27T13:49:21.525Z,24.10
2019-01-27T13:52:23.528Z,16.27
2019-01-27T13:55:28.526Z,19.83
2019-01-27T13:58:30.521Z,25.87
2019-01-27T14:01:33.797Z,28.47
2019-01-27T14:04:35.805Z,30.60
2019-01-27T14:07:37.932Z,18.50
2019-01-27T14:10:39.949Z,17.37
2019-01-27T14:13:41.981Z,19.93
2019-01-27T14:16:43.973Z,23.07
2019-01-27T14:19:48.115Z,24.73
2019-01-27T14:22:53.527Z,28.57
2019-01-27T14:25:55.671Z,22.10
2019-01-27T14:28:57.844Z,28.90
2019-01-27T14:31:59.869Z,13.27
2019-01-27T14:35:06.523Z,19.40
2019-01-27T14:38:11.571Z,26.57
2019-01-27T14:41:13.587Z,20.07
2019-01-27T14:44:15.937Z,25.73
2019-01-27T14:47:18.012Z,22.93
2019-01-27T14:50:23.120Z,16.67
2019-01-27T14:53:26.368Z,25.50
2019-01-27T14:56:28.594Z,25.37
2019-01-27T14:59:32.815Z,24.33
2019-01-27T15:02:35.101Z,21.20
2019-01-27T15:05:38.572Z,22.20
2019-01-27T15:08:40.592Z,22.17
2019-01-27T15:11:45.145Z,16.27
2019-01-27T15:14:47.312Z,18.93
2019-01-27T15:17:49.349Z,12.00
2019-01-27T15:21:00.343Z,6.57
2019-01-27T15:24:02.368Z,8.53
2019-01-27T15:27:04.547Z,8.67
2019-01-27T15:30:11.565Z,5.57
2019-01-27T15:33:13.643Z,5.50
2019-01-27T15:36:15.862Z,11.00
2019-01-27T15:39:20.718Z,10.20
2019-01-27T15:42:22.751Z,13.23
2019-01-27T15:45:27.477Z,13.10
2019-01-27T15:48:36.882Z,12.27
2019-01-27T15:51:38.975Z,19.77
2019-01-27T15:54:41.353Z,12.57
2019-01-27T15:57:43.392Z,21.37
2019-01-27T16:00:45.682Z,17.83
2019-01-27T16:03:47.753Z,12.60
2019-01-27T16:06:49.828Z,15.93
2019-01-27T16:09:52.140Z,21.73
2019-01-27T16:12:54.165Z,16.40
2019-01-27T16:15:58.879Z,24.57
2019-01-27T16:19:07.016Z,19.97
2019-01-27T16:22:09.021Z,23.27
2019-01-27T16:25:13.690Z,19.17
2019-01-27T16:28:15.865Z,19.90
2019-01-27T16:31:35.850Z,15.93
2019-01-27T16:34:53.761Z,27.97
2019-01-27T16:37:55.935Z,28.47
2019-01-27T16:40:58.016Z,20.33
2019-01-27T16:44:01.522Z,18.17
2019-01-27T16:47:03.569Z,25.57
2019-01-27T16:50:08.616Z,21.07
2019-01-27T16:53:10.662Z,22.17
2019-01-27T16:56:17.665Z,17.23
2019-01-27T16:59:21.686Z,18.20
2019-01-27T17:02:23.722Z,19.47
2019-01-27T17:05:25.962Z,17.97
2019-01-27T17:08:27.969Z,17.83
2019-01-27T17:11:37.926Z,14.50
2019-01-27T17:14:40.276Z,20.57
2019-01-27T17:17:42.485Z,23.27
2019-01-27T17:20:45.709Z,24.27
2019-01-27T17:23:50.058Z,16.20
2019-01-27T17:26:54.722Z,15.13
2019-01-27T17:29:59.374Z,22.73
2019-01-27T17:33:03.554Z,18.30
2019-01-27T17:36:05.794Z,24.23
2019-01-27T17:39:09.577Z,19.23
2019-01-27T17:42:11.833Z,17.43
2019-01-27T17:45:14.985Z,17.40
2019-01-27T17:48:17.152Z,20.70
2019-01-27T17:51:19.180Z,20.63
2019-01-27T17:54:21.470Z,17.17
2019-01-27T17:57:34.952Z,19.23
2019-01-27T18:01:11.509Z,14.70
2019-01-27T18:04:31.798Z,22.10
2019-01-27T18:07:48.829Z,13.67
2019-01-27T18:11:10.441Z,18.53
2019-01-27T18:14:17.098Z,19.20
2019-01-27T18:17:19.158Z,15.63
2019-01-27T18:20:21.170Z,17.47
2019-01-27T18:23:23.266Z,13.50
2019-01-27T18:26:26.557Z,12.97
2019-01-27T18:29:28.938Z,21.43
2019-01-27T18:32:31.006Z,14.47
2019-01-27T18:35:34.807Z,21.93
2019-01-27T18:38:36.817Z,13.90
2019-01-27T18:41:40.365Z,13.07
2019-01-27T18:44:42.618Z,8.17
2019-01-27T18:47:44.658Z,14.00
2019-01-27T18:50:47.751Z,14.37
2019-01-27T18:54:06.568Z,15.10
2019-01-27T18:57:26.260Z,15.10
2019-01-27T19:00:35.560Z,15.80
2019-01-27T19:03:59.923Z,10.33
2019-01-27T19:07:20.862Z,11.50
2019-01-27T19:10:42.336Z,15.93
2019-01-27T19:14:05.630Z,11.47
2019-01-27T19:17:35.222Z,22.30
2019-01-27T19:21:06.287Z,23.10
2019-01-27T19:24:29.575Z,13.97
2019-01-27T19:27:58.994Z,11.50
2019-01-27T19:31:10.478Z,15.10
2019-01-27T19:34:37.246Z,19.40
2019-01-27T19:37:55.398Z,11.80
2019-01-27T19:41:11.553Z,18.63
2019-01-27T19:44:23.886Z,18.70
2019-01-27T19:47:35.161Z,25.40
2019-01-27T19:50:44.727Z,15.40
2019-01-27T19:54:06.393Z,10.10
2019-01-27T19:57:21.376Z,18.20
2019-01-27T20:00:46.466Z,12.90
2019-01-27T20:04:10.963Z,18.37
2019-01-27T20:07:31.293Z,12.67
2019-01-27T20:10:59.938Z,14.20
2019-01-27T20:14:27.773Z,16.47
2019-01-27T20:17:49.408Z,15.57
2019-01-27T20:21:03.717Z,14.90
2019-01-27T20:24:34.970Z,17.70
2019-01-27T20:27:51.711Z,15.07
2019-01-27T20:31:22.044Z,17.83
2019-01-27T20:34:52.793Z,16.60
2019-01-27T20:38:13.133Z,9.67
2019-01-27T20:41:43.836Z,7.87
2019-01-27T20:44:55.108Z,16.70
2019-01-27T20:48:19.749Z,10.93
2019-01-27T20:51:38.595Z,15.47
2019-01-27T20:54:51.078Z,12.87
2019-01-27T20:58:00.997Z,14.47
2019-01-27T21:01:24.559Z,15.47
2019-01-27T21:04:45.107Z,13.20
2019-01-27T21:08:05.513Z,17.57
2019-01-27T21:11:36.259Z,17.77
2019-01-27T21:15:03.711Z,16.63
2019-01-27T21:18:28.344Z,21.37
2019-01-27T21:21:33.355Z,20.30
2019-01-27T21:24:35.771Z,18.23
2019-01-27T21:27:37.799Z,11.83
2019-01-27T21:30:39.919Z,12.97
2019-01-27T21:33:43.163Z,17.10
2019-01-27T21:36:45.234Z,17.40
2019-01-27T21:39:47.262Z,19.73
2019-01-27T21:42:54.351Z,14.43
2019-01-27T21:45:58.004Z,16.93
2019-01-27T21:49:03.062Z,12.63
2019-01-27T21:52:05.158Z,14.13
2019-01-27T21:55:07.471Z,15.17
2019-01-27T21:58:09.542Z,19.77
2019-01-27T22:01:11.732Z,19.83
2019-01-27T22:04:14.939Z,17.77
2019-01-27T22:07:16.978Z,15.10
2019-01-27T22:10:20.498Z,26.83
2019-01-27T22:13:22.541Z,12.67
2019-01-27T22:16:25.007Z,13.50
2019-01-27T22:19:27.321Z,16.47
2019-01-27T22:22:29.542Z,8.03
2019-01-27T22:25:31.775Z,18.30
2019-01-27T22:28:34.047Z,16.57
2019-01-27T22:31:36.153Z,15.27
2019-01-27T22:34:43.170Z,11.20
2019-01-27T22:37:48.356Z,19.27
2019-01-27T22:40:50.503Z,11.70
2019-01-27T22:43:54.487Z,21.07
2019-01-27T22:46:56.507Z,17.60
2019-01-27T22:49:58.523Z,11.13
2019-01-27T22:53:03.309Z,12.33
2019-01-27T22:56:05.594Z,22.97
2019-01-27T22:59:07.790Z,14.47
2019-01-27T23:02:09.803Z,22.13
2019-01-27T23:05:11.872Z,19.40
2019-01-27T23:08:13.963Z,9.97
2019-01-27T23:11:17.714Z,12.90
2019-01-27T23:14:19.964Z,14.90
2019-01-27T23:17:21.951Z,11.77
2019-01-27T23:20:24.312Z,11.90
2019-01-27T23:23:26.394Z,5.43
2019-01-27T23:26:28.545Z,6.33
2019-01-27T23:29:31.087Z,13.43
2019-01-27T23:32:34.996Z,11.20
2019-01-27T23:35:40.041Z,17.37
2019-01-27T23:38:46.129Z,9.23
2019-01-27T23:41:48.152Z,15.33
2019-01-27T23:44:50.258Z,17.10
2019-01-27T23:47:53.453Z,10.57
2019-01-27T23:50:55.471Z,12.40
2019-01-27T23:53:57.708Z,16.40
2019-01-27T23:56:59.825Z,17.10
